KCLE/CLE METAR and TAF weather

Enter ICAO airport designator
Station Type Date Time Source
KCLE METAR 2021/07/30 06:51 UTC NOAA

KCLE 300651Z 01009KT 10SM SCT060 21/17 A2992 RMK AO2 SLP142 T02110167


Station Type Date Time Source
KCLE Decoded METAR 2021/07/30 06:51 UTC NOAA

CLEVELAND-HOPKINS INTERNATIONAL , OH, United States (KCLE) 41-24N 081-51W 236M
Jul 30, 2021 - 02:51 AM EDT / 2021.07.30 0651 UTC
Wind: from the N (010 degrees) at 10 MPH (9 KT):0
Visibility: 10 mile(s):0
Sky conditions: partly cloudy
Temperature: 70.0 F (21.1 C)
Dew Point: 62.1 F (16.7 C)
Relative Humidity: 75%
Pressure (altimeter): 29.92 in. Hg (1013 hPa)
ob: KCLE 300651Z 01009KT 10SM SCT060 21/17 A2992 RMK AO2 SLP142 T02110167
cycle: 7

Station Type Date Time Source
KCLE TAF 2021/07/30 06:30 UTC NOAA

TAF KCLE 300528Z 3006/3112 01010KT P6SM BKN045
FM301200 35008KT P6SM SCT250
FM301500 01010KT P6SM SCT045
FM302300 36007KT P6SM FEW250
FM310600 00000KT P6SM SCT250

Example: see airport list